Time;durP1;ratioP1;P1;durP2;ratioP2;P2;SDS_P1;SDS_P2;PMS_P1;PMS_P2;Temp;Humidity;BMP_temperature;BMP_pressure;BME280_temperature;BME280_humidity;BME280_pressure;Samples;Min_cycle;Max_cycle;Signal;HPM_P1;HPM_P2
2021/08/26 00:00:17;;;;;;;6.45;3.75;;;;;;;9.99;100.00;92777.56;1772865;79;21723;-88
2021/08/26 00:05:50;;;;;;;5.97;4.10;;;;;;;9.85;100.00;92754.05;1793595;77;21033;-89
2021/08/26 00:08:18;;;;;;;6.50;4.33;;;;;;;9.79;100.00;92755.70;1824331;75;21141;-91
2021/08/26 00:10:45;;;;;;;7.47;4.30;;;;;;;9.77;100.00;92755.91;1761195;78;21078;-90
2021/08/26 00:13:12;;;;;;;7.83;4.37;;;;;;;9.78;100.00;92758.23;1791070;77;21330;-86
2021/08/26 00:15:43;;;;;;;7.65;4.25;;;;;;;9.80;100.00;92758.58;1752831;80;21077;-90
2021/08/26 00:18:10;;;;;;;6.05;4.12;;;;;;;9.82;100.00;92757.60;1719688;78;20992;-90
2021/08/26 00:20:36;;;;;;;5.53;4.40;;;;;;;9.88;100.00;92758.68;1697161;82;21091;-90
2021/08/26 00:23:04;;;;;;;6.58;4.30;;;;;;;9.92;100.00;92750.48;1714401;82;21656;-90
2021/08/26 00:25:31;;;;;;;8.18;4.62;;;;;;;9.91;100.00;92748.95;1717094;81;21727;-90
2021/08/26 00:27:57;;;;;;;7.87;3.90;;;;;;;9.91;100.00;92747.59;1731957;81;21081;-90
2021/08/26 00:30:25;;;;;;;5.53;4.28;;;;;;;9.95;100.00;92744.25;1840236;76;21085;-91
2021/08/26 00:32:51;;;;;;;7.60;4.80;;;;;;;9.98;100.00;92740.13;1817600;76;21046;-90
2021/08/26 00:35:18;;;;;;;13.58;5.45;;;;;;;9.98;100.00;92738.01;1767386;79;21139;-90
2021/08/26 00:37:44;;;;;;;9.53;5.75;;;;;;;9.95;100.00;92732.80;1772469;77;21223;-90
2021/08/26 00:40:11;;;;;;;9.40;5.00;;;;;;;9.96;100.00;92737.04;1816522;77;21062;-91
2021/08/26 00:42:38;;;;;;;10.10;4.80;;;;;;;10.00;100.00;92730.80;1767810;77;21105;-90
2021/08/26 00:45:05;;;;;;;8.13;5.17;;;;;;;9.98;100.00;92731.22;1788877;77;21087;-91
2021/08/26 00:47:34;;;;;;;8.38;4.90;;;;;;;9.96;100.00;92739.76;1831007;76;21141;-89
2021/08/26 00:50:00;;;;;;;5.70;3.90;;;;;;;9.95;100.00;92736.87;1824800;75;21601;-88
2021/08/26 00:52:27;;;;;;;6.47;4.00;;;;;;;9.94;100.00;92735.93;1838822;76;21482;-89
2021/08/26 00:54:54;;;;;;;7.33;3.95;;;;;;;9.92;100.00;92743.70;1836318;75;21052;-90
2021/08/26 00:57:22;;;;;;;6.37;4.22;;;;;;;9.92;100.00;92737.67;1836507;75;21100;-90
2021/08/26 00:59:48;;;;;;;14.83;5.28;;;;;;;9.95;100.00;92734.75;1820056;75;21064;-90
2021/08/26 01:02:30;;;;;;;7.22;4.80;;;;;;;9.93;100.00;92737.11;1768293;79;21264;-90
2021/08/26 01:05:13;;;;;;;9.13;5.20;;;;;;;9.91;100.00;92729.36;1775563;79;21174;-89
2021/08/26 01:07:49;;;;;;;9.63;5.50;;;;;;;9.93;100.00;92729.73;1738423;80;21098;-90
2021/08/26 01:10:18;;;;;;;10.65;5.08;;;;;;;9.96;100.00;92726.18;1786883;78;21441;-90
2021/08/26 01:12:47;;;;;;;7.42;4.70;;;;;;;9.97;100.00;92723.66;1778127;78;21685;-90
2021/08/26 01:15:13;;;;;;;10.10;5.15;;;;;;;9.99;100.00;92716.45;1806974;77;21056;-87
2021/08/26 01:17:46;;;;;;;7.83;5.05;;;;;;;9.99;100.00;92720.53;1829325;77;21043;-91
2021/08/26 01:20:13;;;;;;;5.80;4.47;;;;;;;10.00;100.00;92717.22;1790781;77;21896;-90
2021/08/26 01:22:39;;;;;;;4.62;3.62;;;;;;;10.02;100.00;92721.67;1842660;75;21598;-89
2021/08/26 01:25:12;;;;;;;7.35;4.72;;;;;;;10.04;100.00;92714.66;1833392;77;21036;-92
2021/08/26 01:27:56;;;;;;;8.18;4.40;;;;;;;10.00;100.00;92707.13;1838770;75;21021;-88
2021/08/26 01:30:26;;;;;;;7.10;4.13;;;;;;;10.02;100.00;92706.73;1811481;75;21166;-91
2021/08/26 01:32:56;;;;;;;4.70;3.40;;;;;;;10.05;100.00;92707.28;1828974;77;21038;-89
2021/08/26 01:35:22;;;;;;;5.28;4.20;;;;;;;10.06;100.00;92705.50;1806657;77;21560;-89
2021/08/26 01:37:49;;;;;;;7.15;3.80;;;;;;;10.08;100.00;92707.23;1741948;78;21079;-87
2021/08/26 01:40:15;;;;;;;6.22;4.05;;;;;;;10.09;100.00;92710.12;1794094;78;21124;-90
2021/08/26 01:42:44;;;;;;;6.35;4.53;;;;;;;10.10;100.00;92704.09;1822368;77;21101;-90
2021/08/26 01:45:11;;;;;;;5.62;3.70;;;;;;;10.08;100.00;92699.64;1821408;77;21054;-91
2021/08/26 01:47:39;;;;;;;5.85;4.45;;;;;;;10.07;100.00;92698.87;1834504;76;21338;-91
2021/08/26 01:50:07;;;;;;;6.72;4.22;;;;;;;10.09;100.00;92701.97;1825489;76;21215;-91
2021/08/26 01:52:33;;;;;;;8.63;4.50;;;;;;;10.10;100.00;92702.73;1790612;77;21054;-89
2021/08/26 01:55:02;;;;;;;8.05;4.20;;;;;;;10.13;100.00;92697.85;1794635;77;21077;-90
2021/08/26 01:57:29;;;;;;;5.40;4.33;;;;;;;10.16;100.00;92689.66;1789437;79;21010;-91
2021/08/26 01:59:55;;;;;;;6.42;3.60;;;;;;;10.21;100.00;92689.77;1796480;78;21088;-92
2021/08/26 02:02:22;;;;;;;5.28;3.35;;;;;;;10.23;100.00;92691.50;1794439;78;21528;-89
2021/08/26 02:07:14;;;;;;;3.77;2.92;;;;;;;10.25;100.00;92686.45;1798975;77;21647;-90
2021/08/26 02:09:41;;;;;;;9.25;4.00;;;;;;;10.24;100.00;92684.12;1748043;80;21074;-89
2021/08/26 02:12:07;;;;;;;8.20;5.45;;;;;;;10.21;100.00;92687.06;1736991;80;21373;-90
2021/08/26 02:14:34;;;;;;;10.82;5.60;;;;;;;10.20;100.00;92689.01;1768336;79;21555;-91
2021/08/26 02:17:02;;;;;;;7.80;5.40;;;;;;;10.20;100.00;92692.32;1768882;77;21006;-87
2021/08/26 02:19:29;;;;;;;6.92;4.80;;;;;;;10.23;100.00;92688.79;1835682;77;21029;-91
2021/08/26 02:21:56;;;;;;;5.70;4.20;;;;;;;10.22;100.00;92683.16;1837430;76;21087;-89
2021/08/26 02:24:22;;;;;;;6.33;4.65;;;;;;;10.22;100.00;92689.35;1832330;77;21588;-91
2021/08/26 02:26:48;;;;;;;4.87;4.05;;;;;;;10.24;100.00;92681.41;1825540;77;21076;-91
2021/08/26 02:29:14;;;;;;;6.40;3.83;;;;;;;10.25;100.00;92682.94;1816719;77;21057;-91
2021/08/26 02:31:41;;;;;;;4.20;3.62;;;;;;;10.28;100.00;92679.43;1774086;79;21043;-89
2021/08/26 02:34:07;;;;;;;5.08;3.80;;;;;;;10.29;100.00;92680.36;1821974;77;21415;-89
2021/08/26 02:36:35;;;;;;;6.25;4.28;;;;;;;10.31;100.00;92679.38;1832263;77;21340;-91
2021/08/26 02:39:01;;;;;;;5.10;3.58;;;;;;;10.34;100.00;92683.20;1763577;79;21240;-91
2021/08/26 02:41:28;;;;;;;5.25;4.10;;;;;;;10.37;100.00;92678.31;1758786;80;21074;-91
2021/08/26 02:43:54;;;;;;;7.67;4.17;;;;;;;10.37;100.00;92681.80;1719121;81;21093;-89
2021/08/26 02:46:21;;;;;;;5.05;3.87;;;;;;;10.33;100.00;92679.72;1817692;77;21033;-91
2021/08/26 02:48:47;;;;;;;5.03;3.92;;;;;;;10.33;100.00;92678.36;1833469;77;21099;-88
2021/08/26 02:51:14;;;;;;;4.03;3.47;;;;;;;10.33;100.00;92677.00;1824672;77;21065;-90
2021/08/26 02:53:40;;;;;;;6.28;3.90;;;;;;;10.36;100.00;92681.63;1803765;77;21413;-89
2021/08/26 02:56:07;;;;;;;6.20;3.80;;;;;;;10.34;100.00;92682.64;1786250;78;21010;-88
2021/08/26 02:58:33;;;;;;;8.40;3.37;;;;;;;10.32;100.00;92680.91;1788250;78;21472;-90
2021/08/26 03:01:00;;;;;;;10.48;6.97;;;;;;;10.33;100.00;92687.11;1758929;78;21062;-90
2021/08/26 03:03:26;;;;;;;13.18;7.20;;;;;;;10.30;100.00;92678.41;1784939;78;21223;-91
2021/08/26 03:05:52;;;;;;;14.35;8.58;;;;;;;10.28;100.00;92680.20;1759260;78;21262;-91
2021/08/26 03:08:19;;;;;;;11.80;7.40;;;;;;;10.28;100.00;92683.51;1718642;81;21062;-90
2021/08/26 03:10:45;;;;;;;12.30;6.87;;;;;;;10.28;100.00;92682.91;1739446;79;21695;-92
2021/08/26 03:13:12;;;;;;;7.62;4.62;;;;;;;10.31;100.00;92684.05;1744576;80;21165;-91
2021/08/26 03:15:40;;;;;;;8.58;5.45;;;;;;;10.31;100.00;92685.41;1786374;78;21065;-91
2021/08/26 03:18:07;;;;;;;11.57;5.47;;;;;;;10.35;100.00;92680.09;1789208;78;21028;-88
2021/08/26 03:20:33;;;;;;;9.85;5.53;;;;;;;10.37;100.00;92684.52;1784228;78;21057;-88
2021/08/26 03:23:00;;;;;;;6.92;5.35;;;;;;;10.39;100.00;92684.12;1807320;77;21092;-91
2021/08/26 03:25:26;;;;;;;14.07;5.00;;;;;;;10.38;100.00;92682.56;1779165;78;21840;-90
2021/08/26 03:27:54;;;;;;;16.62;9.25;;;;;;;10.34;100.00;92685.36;1808955;77;21798;-92
2021/08/26 03:30:20;;;;;;;10.95;6.25;;;;;;;10.31;100.00;92690.25;1824961;76;21248;-91
2021/08/26 03:32:47;;;;;;;7.97;5.10;;;;;;;10.32;100.00;92682.27;1836196;76;21061;-91
2021/08/26 03:35:13;;;;;;;7.58;4.35;;;;;;;10.32;100.00;92686.34;1820640;77;21073;-92
2021/08/26 03:37:39;;;;;;;6.10;3.30;;;;;;;10.27;100.00;92687.38;1833842;77;21066;-87
2021/08/26 03:40:07;;;;;;;4.92;3.40;;;;;;;10.23;100.00;92686.07;1777795;77;21066;-91
2021/08/26 03:42:33;;;;;;;5.58;2.98;;;;;;;10.21;100.00;92689.18;1814179;76;21034;-90
2021/08/26 03:45:00;;;;;;;3.60;2.75;;;;;;;10.16;100.00;92689.66;1818806;76;21097;-92
2021/08/26 03:47:26;;;;;;;4.65;2.55;;;;;;;10.12;100.00;92699.03;1805074;77;21621;-91
2021/08/26 03:49:53;;;;;;;3.98;2.55;;;;;;;10.05;100.00;92703.20;1776848;79;23056;-90
2021/08/26 03:52:20;;;;;;;7.40;3.02;;;;;;;10.01;100.00;92700.53;1816813;77;21013;-90
2021/08/26 03:54:48;;;;;;;3.72;2.72;;;;;;;9.94;100.00;92699.27;1802361;77;21584;-90
2021/08/26 03:57:14;;;;;;;3.83;2.62;;;;;;;9.90;100.00;92697.19;1786946;78;21062;-88
2021/08/26 03:59:42;;;;;;;5.25;2.70;;;;;;;9.87;100.00;92700.72;1770005;78;21077;-89
2021/08/26 04:02:09;;;;;;;5.15;3.00;;;;;;;9.79;100.00;92699.27;1764852;78;21145;-89
2021/08/26 04:04:35;;;;;;;5.80;3.70;;;;;;;9.74;100.00;92701.83;1744158;81;21515;-88
2021/08/26 04:07:02;;;;;;;5.70;3.12;;;;;;;9.75;100.00;92700.67;1794868;77;21050;-90
2021/08/26 04:09:29;;;;;;;4.15;2.67;;;;;;;9.78;100.00;92703.14;1800434;77;21040;-89
2021/08/26 04:11:55;;;;;;;3.98;2.60;;;;;;;9.81;100.00;92706.41;1766989;79;21169;-91
2021/08/26 04:14:21;;;;;;;3.47;2.40;;;;;;;9.79;100.00;92703.34;1729805;81;21125;-91
2021/08/26 04:16:49;;;;;;;4.62;2.77;;;;;;;9.77;100.00;92709.16;1760655;77;21539;-90
2021/08/26 04:19:16;;;;;;;3.17;2.70;;;;;;;9.76;100.00;92703.55;1763718;78;20995;-89
2021/08/26 04:21:42;;;;;;;8.88;3.58;;;;;;;9.79;100.00;92703.34;1737288;80;21072;-90
2021/08/26 04:24:09;;;;;;;3.33;2.60;;;;;;;9.84;100.00;92710.44;1757589;79;21039;-88
2021/08/26 04:26:35;;;;;;;2.67;2.37;;;;;;;9.87;100.00;92702.84;1810420;77;21242;-89
2021/08/26 04:29:02;;;;;;;3.12;2.22;;;;;;;9.84;100.00;92700.93;1815561;77;21088;-90
2021/08/26 04:31:29;;;;;;;2.90;2.52;;;;;;;9.82;100.00;92704.66;1798796;77;21013;-88
2021/08/26 04:33:56;;;;;;;3.02;2.35;;;;;;;9.82;100.00;92703.30;1776566;77;21057;-89
2021/08/26 04:36:26;;;;;;;2.70;2.50;;;;;;;9.86;100.00;92704.61;1778351;77;21120;-90
2021/08/26 04:38:52;;;;;;;4.28;2.50;;;;;;;9.87;100.00;92701.48;1827889;77;21158;-90
2021/08/26 04:41:19;;;;;;;5.47;4.40;;;;;;;9.88;100.00;92702.24;1765822;79;21046;-87
2021/08/26 04:43:45;;;;;;;2.33;2.12;;;;;;;9.94;100.00;92695.95;1754868;79;21131;-91
2021/08/26 04:46:13;;;;;;;4.42;2.65;;;;;;;10.02;100.00;92699.94;1785651;78;21648;-91
2021/08/26 04:48:40;;;;;;;2.72;2.15;;;;;;;10.08;100.00;92692.86;1809512;77;21053;-90
2021/08/26 04:51:06;;;;;;;3.72;2.65;;;;;;;10.14;100.00;92698.78;1809585;75;21133;-90
2021/08/26 04:53:33;;;;;;;2.62;2.42;;;;;;;10.19;100.00;92683.41;1840920;75;21312;-90
2021/08/26 04:56:00;;;;;;;2.70;2.42;;;;;;;10.28;100.00;92691.66;1838684;75;21104;-88
2021/08/26 04:58:26;;;;;;;9.38;2.70;;;;;;;10.35;100.00;92688.24;1844999;75;21068;-90
2021/08/26 05:00:53;;;;;;;4.72;2.30;;;;;;;10.43;100.00;92683.47;1850190;75;21021;-90
2021/08/26 05:03:27;;;;;;;4.60;3.40;;;;;;;10.51;100.00;92682.17;1834057;75;21222;-91
2021/08/26 05:05:55;;;;;;;3.70;3.40;;;;;;;10.54;100.00;92681.95;1770197;78;21037;-88
2021/08/26 05:08:21;;;;;;;3.37;2.90;;;;;;;10.58;100.00;92677.99;1816572;77;21512;-86
2021/08/26 05:10:51;;;;;;;4.40;2.75;;;;;;;10.60;100.00;92671.53;1814064;77;21088;-91
2021/08/26 05:13:21;;;;;;;5.62;4.00;;;;;;;10.63;100.00;92669.36;1749425;79;20974;-91
2021/08/26 05:15:48;;;;;;;6.42;5.00;;;;;;;10.67;100.00;92662.50;1786408;78;21134;-90
2021/08/26 05:18:17;;;;;;;5.87;4.95;;;;;;;10.73;100.00;92670.97;1762999;77;21621;-88
2021/08/26 05:20:45;;;;;;;5.25;4.15;;;;;;;10.79;100.00;92673.38;1789245;77;21042;-90
2021/08/26 05:23:12;;;;;;;8.50;5.25;;;;;;;10.83;100.00;92667.28;1833835;76;21970;-90
2021/08/26 05:25:38;;;;;;;8.48;5.85;;;;;;;10.89;100.00;92667.00;1791813;76;21702;-90
2021/08/26 05:28:05;;;;;;;8.03;4.87;;;;;;;10.92;100.00;92671.02;1802430;77;21259;-91
2021/08/26 05:30:31;;;;;;;5.70;4.40;;;;;;;10.98;100.00;92665.85;1810798;77;21030;-89
2021/08/26 05:33:02;;;;;;;8.05;4.65;;;;;;;11.05;100.00;92669.05;1831145;77;21069;-91
2021/08/26 05:35:29;;;;;;;4.72;3.77;;;;;;;11.08;100.00;92668.22;1809997;77;21033;-91
2021/08/26 05:37:59;;;;;;;3.87;3.08;;;;;;;11.10;100.00;92665.87;1811477;77;21188;-89
2021/08/26 05:40:30;;;;;;;4.12;3.72;;;;;;;11.10;100.00;92665.87;1808366;77;21140;-89
2021/08/26 05:42:55;;;;;;;4.53;3.40;;;;;;;11.10;100.00;92664.50;1796493;77;21099;-90
2021/08/26 05:45:22;;;;;;;4.35;3.52;;;;;;;11.10;100.00;92665.27;1796432;77;21033;-92
2021/08/26 05:47:54;;;;;;;4.50;3.42;;;;;;;11.13;100.00;92659.57;1807933;77;21072;-90
2021/08/26 05:50:16;;;;;;;6.45;4.15;;;;;;;11.16;100.00;92666.91;1790096;78;21008;-88
2021/08/26 05:52:47;;;;;;;6.85;4.37;;;;;;;11.17;100.00;92662.42;1831253;76;21956;-90
2021/08/26 05:55:19;;;;;;;5.95;4.20;;;;;;;11.19;100.00;92664.12;1828627;77;21057;-90
2021/08/26 05:57:47;;;;;;;6.47;4.95;;;;;;;11.24;100.00;92670.27;1804170;77;21049;-86
2021/08/26 06:00:15;;;;;;;10.35;6.00;;;;;;;11.24;100.00;92658.78;1760652;79;21097;-90
2021/08/26 06:02:42;;;;;;;6.12;5.10;;;;;;;11.26;100.00;92658.38;1820512;77;21065;-90
2021/08/26 06:05:10;;;;;;;4.40;4.00;;;;;;;11.27;99.99;92653.87;1774444;79;21132;-87
2021/08/26 06:07:40;;;;;;;4.70;4.15;;;;;;;11.28;99.68;92652.67;1797713;78;21074;-89
2021/08/26 06:10:09;;;;;;;8.15;4.72;;;;;;;11.27;99.29;92650.38;1813446;77;20987;-89
2021/08/26 06:12:39;;;;;;;4.50;4.03;;;;;;;11.26;99.13;92644.17;1796769;77;21097;-87
2021/08/26 06:15:08;;;;;;;7.30;4.83;;;;;;;11.28;98.68;92653.27;1827029;76;21036;-88
2021/08/26 06:17:34;;;;;;;5.05;4.20;;;;;;;11.26;98.78;92644.17;1813723;77;21213;-90
2021/08/26 06:20:04;;;;;;;5.65;5.00;;;;;;;11.30;98.72;92647.59;1777913;76;21067;-91
2021/08/26 06:22:31;;;;;;;8.05;5.10;;;;;;;11.33;98.92;92645.41;1771527;77;21076;-87
2021/08/26 06:24:59;;;;;;;6.58;4.75;;;;;;;11.36;98.84;92650.02;1763037;78;21619;-89
2021/08/26 06:27:26;;;;;;;7.87;4.47;;;;;;;11.39;98.57;92650.52;1773486;78;21077;-89
2021/08/26 06:29:53;;;;;;;5.10;4.28;;;;;;;11.41;99.12;92645.44;1801615;78;21622;-87
2021/08/26 06:32:19;;;;;;;4.03;3.52;;;;;;;11.47;99.59;92644.38;1792029;78;20973;-89
2021/08/26 06:34:46;;;;;;;7.62;4.60;;;;;;;11.51;98.94;92652.44;1770789;77;21653;-90
2021/08/26 06:37:13;;;;;;;7.85;3.87;;;;;;;11.55;99.46;92645.00;1813236;76;21021;-87
2021/08/26 06:39:39;;;;;;;4.97;4.12;;;;;;;11.58;99.81;92650.34;1807690;77;21069;-89
2021/08/26 06:42:06;;;;;;;5.33;3.33;;;;;;;11.63;99.49;92640.34;1819590;77;21063;-91
2021/08/26 06:44:32;;;;;;;5.67;4.00;;;;;;;11.67;98.04;92642.39;1793207;77;21103;-88
2021/08/26 06:46:59;;;;;;;4.17;3.42;;;;;;;11.69;97.34;92640.60;1803275;76;21092;-90
2021/08/26 06:49:30;;;;;;;4.97;3.75;;;;;;;11.73;96.42;92637.20;1791096;77;21063;-91
2021/08/26 06:51:58;;;;;;;3.75;3.17;;;;;;;11.77;96.06;92639.86;1790536;77;21370;-88
2021/08/26 06:54:24;;;;;;;5.92;3.87;;;;;;;11.83;95.51;92638.98;1785608;78;21097;-89
2021/08/26 06:56:50;;;;;;;5.40;3.55;;;;;;;11.89;94.65;92640.03;1775354;79;21053;-91
2021/08/26 06:59:17;;;;;;;5.80;3.70;;;;;;;11.95;94.10;92638.92;1816378;77;21112;-90
2021/08/26 07:01:44;;;;;;;4.22;3.25;;;;;;;12.01;92.55;92632.39;1804247;77;21178;-90
2021/08/26 07:04:11;;;;;;;7.15;4.50;;;;;;;12.05;92.46;92631.72;1795084;77;21467;-89
2021/08/26 07:06:40;;;;;;;7.70;3.67;;;;;;;12.10;92.02;92636.66;1793269;77;21105;-88
2021/08/26 07:09:07;;;;;;;4.65;3.83;;;;;;;12.14;92.01;92632.65;1820710;76;21084;-87
2021/08/26 07:11:33;;;;;;;6.28;4.00;;;;;;;12.22;91.61;92636.58;1796683;78;20967;-88
2021/08/26 07:14:01;;;;;;;7.12;3.50;;;;;;;12.27;90.92;92635.50;1802502;76;21039;-89
2021/08/26 07:16:27;;;;;;;4.47;3.35;;;;;;;12.31;90.86;92630.73;1815629;76;21037;-89
2021/08/26 07:18:55;;;;;;;5.95;4.20;;;;;;;12.37;90.77;92633.70;1826688;77;21145;-91
2021/08/26 07:21:22;;;;;;;7.05;3.52;;;;;;;12.47;90.65;92631.33;1793146;77;21071;-90
2021/08/26 07:23:49;;;;;;;7.72;4.20;;;;;;;12.57;89.55;92638.49;1742003;79;21067;-88
2021/08/26 07:26:18;;;;;;;5.65;4.03;;;;;;;12.67;89.45;92633.95;1774980;78;21033;-92
2021/08/26 07:28:45;;;;;;;7.53;3.92;;;;;;;12.75;88.12;92636.70;1810571;77;21037;-87
2021/08/26 07:31:12;;;;;;;4.67;3.80;;;;;;;12.80;87.74;92629.36;1825799;76;21712;-88
2021/08/26 07:33:40;;;;;;;5.95;4.12;;;;;;;12.88;87.20;92635.41;1844357;76;21032;-89
2021/08/26 07:36:06;;;;;;;5.10;4.03;;;;;;;12.93;86.65;92632.14;1808121;77;21064;-87
2021/08/26 07:38:33;;;;;;;7.45;3.60;;;;;;;12.96;85.41;92631.30;1821194;76;21111;-88
2021/08/26 07:40:59;;;;;;;6.47;4.83;;;;;;;12.97;85.40;92633.42;1805280;76;21132;-88
2021/08/26 07:43:31;;;;;;;5.22;3.98;;;;;;;13.00;85.15;92638.79;1785834;77;21069;-88
2021/08/26 07:45:56;;;;;;;5.80;3.83;;;;;;;13.07;85.72;92639.98;1762856;78;21195;-87
2021/08/26 07:48:24;;;;;;;6.05;4.20;;;;;;;13.16;83.36;92635.86;1804232;77;21010;-87
2021/08/26 07:50:53;;;;;;;5.35;4.00;;;;;;;13.20;83.35;92638.69;1782350;77;21093;-92
2021/08/26 07:53:20;;;;;;;5.78;4.10;;;;;;;13.24;82.16;92630.41;1820394;76;21469;-91
2021/08/26 07:55:49;;;;;;;6.28;4.30;;;;;;;13.26;81.54;92637.58;1821437;76;21099;-90
2021/08/26 07:58:18;;;;;;;4.72;3.55;;;;;;;13.24;80.92;92636.66;1816328;77;21089;-91
2021/08/26 08:00:48;;;;;;;4.28;3.85;;;;;;;13.22;79.86;92636.88;1795898;77;21095;-87
2021/08/26 08:03:21;;;;;;;6.15;4.60;;;;;;;13.18;78.74;92630.14;1799909;77;21022;-90
2021/08/26 08:05:47;;;;;;;5.47;4.30;;;;;;;13.16;80.02;92626.30;1802342;77;21143;-89
2021/08/26 08:08:16;;;;;;;5.67;4.10;;;;;;;13.19;80.79;92625.45;1808413;77;21503;-88
2021/08/26 08:10:43;;;;;;;6.40;4.60;;;;;;;13.24;80.45;92627.10;1809833;76;21036;-91
2021/08/26 08:13:09;;;;;;;5.20;3.60;;;;;;;13.27;81.00;92622.72;1809504;77;21047;-87
2021/08/26 08:15:37;;;;;;;5.08;3.92;;;;;;;13.31;80.90;92625.55;1810752;77;21430;-88
2021/08/26 08:18:04;;;;;;;6.05;4.37;;;;;;;13.37;80.45;92617.58;1820591;76;21042;-89
2021/08/26 08:20:30;;;;;;;5.67;4.00;;;;;;;13.44;77.69;92626.19;1819963;75;21128;-90
2021/08/26 08:22:57;;;;;;;4.58;3.62;;;;;;;13.52;78.21;92626.15;1788709;78;21062;-89
2021/08/26 08:25:23;;;;;;;6.15;4.30;;;;;;;13.59;76.97;92612.30;1775952;78;21496;-89
2021/08/26 08:27:50;;;;;;;7.30;4.28;;;;;;;13.69;75.86;92626.84;1787143;78;21063;-90
2021/08/26 08:39:36;;;;;;;3.70;3.40;;;;;;;14.17;75.30;92619.59;1765422;79;20200;-87
2021/08/26 08:42:03;;;;;;;8.00;3.98;;;;;;;14.20;74.67;92609.91;1744845;79;21113;-89
2021/08/26 08:44:30;;;;;;;5.50;4.40;;;;;;;14.24;75.16;92614.67;1797674;77;20874;-88
2021/08/26 08:46:59;;;;;;;5.75;3.70;;;;;;;14.31;73.84;92617.19;1789728;78;21002;-90
2021/08/26 08:49:26;;;;;;;3.85;3.45;;;;;;;14.38;72.07;92621.67;1764736;79;21235;-88
2021/08/26 08:51:54;;;;;;;5.70;4.00;;;;;;;14.38;68.27;92620.31;1723896;80;21112;-86
2021/08/26 08:54:22;;;;;;;5.05;3.67;;;;;;;14.29;69.70;92614.72;1745540;79;21087;-85
2021/08/26 08:56:49;;;;;;;6.62;3.55;;;;;;;14.25;71.26;92616.80;1723169;80;21129;-89
2021/08/26 08:59:16;;;;;;;5.47;3.30;;;;;;;14.33;69.94;92616.16;1793933;77;21047;-88
2021/08/26 09:01:53;;;;;;;4.50;3.62;;;;;;;14.45;70.44;92618.72;1821196;75;22348;-90
2021/08/26 09:04:21;;;;;;;3.65;3.10;;;;;;;14.60;70.13;92608.13;1793818;77;21595;-89
2021/08/26 09:06:50;;;;;;;5.12;3.02;;;;;;;14.74;70.76;92600.83;1810431;77;21090;-91
2021/08/26 09:09:17;;;;;;;5.75;3.60;;;;;;;14.88;68.67;92606.41;1803528;77;23497;-92
2021/08/26 09:11:52;;;;;;;4.33;3.37;;;;;;;14.96;67.69;92618.66;1801929;77;21454;-91
2021/08/26 09:14:20;;;;;;;3.65;3.30;;;;;;;14.99;66.25;92606.83;1804119;77;21096;-90
2021/08/26 09:16:54;;;;;;;6.70;4.03;;;;;;;15.00;65.23;92614.43;1764581;78;21059;-88
2021/08/26 09:19:33;;;;;;;6.42;3.77;;;;;;;14.97;66.16;92608.47;1764302;79;21538;-90
2021/08/26 09:22:05;;;;;;;5.75;3.77;;;;;;;14.97;65.29;92604.36;1709062;81;21073;-89
2021/08/26 09:24:50;;;;;;;5.20;3.55;;;;;;;14.97;65.72;92601.05;1708170;80;21864;-90
2021/08/26 09:27:40;;;;;;;6.10;3.30;;;;;;;15.02;65.75;92598.34;1678710;82;21218;-92
2021/08/26 09:30:17;;;;;;;5.28;3.80;;;;;;;15.10;66.02;92610.58;1760143;78;21006;-92
2021/08/26 09:32:50;;;;;;;4.58;3.30;;;;;;;15.18;64.57;92615.97;1767547;77;21434;-90
2021/08/26 09:35:22;;;;;;;5.42;4.25;;;;;;;15.19;63.34;92621.59;1792594;77;21029;-91
2021/08/26 09:37:57;;;;;;;4.35;3.65;;;;;;;15.17;64.89;92617.79;1770620;79;21109;-90
2021/08/26 09:40:30;;;;;;;6.42;3.83;;;;;;;15.19;65.97;92612.02;1752200;80;24835;-89
2021/08/26 09:43:05;;;;;;;7.03;3.70;;;;;;;15.29;65.97;92618.34;1808924;77;21199;-91
2021/08/26 09:45:34;;;;;;;5.30;3.98;;;;;;;15.40;66.70;92609.76;1739943;77;21077;-89
2021/08/26 09:48:15;;;;;;;5.17;3.37;;;;;;;15.51;65.61;92618.36;1714495;80;21371;-92
2021/08/26 09:50:53;;;;;;;4.55;3.52;;;;;;;15.58;66.16;92614.61;1736617;80;21515;-89
2021/08/26 09:53:33;;;;;;;5.28;3.25;;;;;;;15.60;63.88;92614.92;1753837;77;21064;-92
2021/08/26 09:56:04;;;;;;;5.97;3.42;;;;;;;15.53;63.54;92624.14;1800996;77;21667;-92
2021/08/26 09:58:33;;;;;;;4.58;3.58;;;;;;;15.37;62.67;92637.42;1803151;77;21627;-89
2021/08/26 10:01:13;;;;;;;3.83;3.30;;;;;;;15.08;62.01;92632.14;1784042;78;21069;-91
2021/08/26 10:03:41;;;;;;;5.42;4.15;;;;;;;14.76;63.31;92635.34;1771284;78;21089;-91
2021/08/26 10:06:09;;;;;;;6.47;4.33;;;;;;;14.49;64.62;92637.18;1766872;79;21317;-87
2021/08/26 10:08:42;;;;;;;4.22;3.55;;;;;;;14.31;65.81;92641.80;1733906;79;21662;-88
2021/08/26 10:11:10;;;;;;;5.58;3.98;;;;;;;14.21;66.76;92645.61;1775252;79;21588;-90
2021/08/26 10:13:39;;;;;;;4.70;3.75;;;;;;;14.13;67.49;92639.44;1774732;77;21056;-87
2021/08/26 10:16:08;;;;;;;6.92;4.08;;;;;;;14.08;67.85;92646.22;1789024;77;21220;-88
2021/08/26 10:18:36;;;;;;;16.05;4.03;;;;;;;14.08;68.85;92643.48;1813010;77;21028;-87
2021/08/26 10:21:09;;;;;;;5.30;3.98;;;;;;;14.15;69.83;92636.44;1808164;77;21344;-90
2021/08/26 10:23:45;;;;;;;4.20;3.80;;;;;;;14.31;70.37;92639.06;1767839;77;21641;-88
2021/08/26 10:26:15;;;;;;;4.28;3.40;;;;;;;14.51;68.81;92625.19;1712698;79;21049;-88
2021/08/26 10:28:42;;;;;;;5.03;3.80;;;;;;;14.70;68.63;92626.14;1763572;79;21776;-90
2021/08/26 10:31:29;;;;;;;7.10;4.17;;;;;;;14.88;68.46;92624.20;1808566;77;20989;-88
2021/08/26 10:34:23;;;;;;;7.20;3.87;;;;;;;14.98;66.30;92623.70;1728495;79;21090;-91
2021/08/26 10:37:16;;;;;;;6.42;4.42;;;;;;;14.98;66.56;92623.70;1725999;80;21158;-88
2021/08/26 10:39:42;;;;;;;5.58;4.33;;;;;;;14.99;65.86;92622.48;1765774;79;21017;-90
2021/08/26 10:42:29;;;;;;;6.87;4.78;;;;;;;15.02;66.45;92622.37;1767246;79;21587;-91
2021/08/26 10:45:18;;;;;;;5.30;3.92;;;;;;;15.09;66.15;92616.50;1762586;79;21061;-89
2021/08/26 10:47:54;;;;;;;6.20;4.30;;;;;;;15.18;67.16;92620.08;1759012;79;22110;-91
2021/08/26 10:50:24;;;;;;;5.78;4.67;;;;;;;15.27;64.33;92622.91;1756330;79;21702;-90
2021/08/26 10:53:16;;;;;;;5.60;4.20;;;;;;;15.20;63.03;92634.71;1755874;79;21107;-91
2021/08/26 10:55:48;;;;;;;5.53;4.35;;;;;;;15.06;64.01;92642.79;1757685;79;21119;-92
2021/08/26 10:58:40;;;;;;;5.70;4.17;;;;;;;14.94;63.43;92628.53;1756200;79;21871;-94
2021/08/26 11:01:09;;;;;;;7.58;5.30;;;;;;;14.88;64.05;92627.55;1759820;79;21424;-93
2021/08/26 11:03:47;;;;;;;6.42;4.03;;;;;;;14.86;63.09;92620.40;1757418;79;21056;-91
2021/08/26 11:06:22;;;;;;;8.68;4.60;;;;;;;14.93;66.17;92625.61;1756049;79;21038;-91
2021/08/26 11:08:52;;;;;;;5.90;4.40;;;;;;;15.11;64.65;92623.05;1735050;80;21681;-89
2021/08/26 11:11:30;;;;;;;8.65;4.75;;;;;;;15.26;63.49;92611.01;1790896;77;21058;-90
2021/08/26 11:14:07;;;;;;;;;;;;;;;15.40;61.86;92618.73;1779065;78;21052;-88
2021/08/26 11:16:39;;;;;;;5.72;4.35;;;;;;;15.50;62.72;92616.84;1777760;78;20566;-92
2021/08/26 11:19:12;;;;;;;6.45;4.45;;;;;;;15.62;63.64;92617.98;1783257;78;21153;-89
2021/08/26 11:21:54;;;;;;;5.33;3.90;;;;;;;15.75;62.95;92608.50;1761536;78;21138;-91
2021/08/26 11:24:31;;;;;;;7.30;5.00;;;;;;;15.88;61.60;92620.02;1746706;79;21069;-90
2021/08/26 11:27:06;;;;;;;7.50;4.72;;;;;;;15.89;61.65;92613.31;1747406;80;21072;-92
2021/08/26 11:29:35;;;;;;;;;;;;;;;15.85;63.10;92618.92;1726445;80;21089;-89
2021/08/26 11:32:03;;;;;;;6.40;4.70;;;;;;;15.82;61.87;92612.20;1711982;81;20200;-90
2021/08/26 11:34:49;;;;;;;6.25;4.05;;;;;;;15.75;63.29;92615.34;1824408;76;21089;-89
2021/08/26 11:37:28;;;;;;;4.37;3.83;;;;;;;15.70;61.56;92610.45;1790278;76;21452;-89
2021/08/26 11:40:09;;;;;;;3.87;3.58;;;;;;;15.62;62.28;92605.05;1752251;78;21111;-89
2021/08/26 11:42:41;;;;;;;7.05;4.10;;;;;;;15.58;61.90;92609.13;1743701;80;21089;-89
2021/08/26 11:45:28;;;;;;;6.67;4.40;;;;;;;15.61;62.36;92619.18;1745377;79;21055;-88
2021/08/26 11:48:00;;;;;;;7.47;3.55;;;;;;;15.69;62.01;92617.16;1756842;78;21116;-88
2021/08/26 11:50:35;;;;;;;6.73;4.70;;;;;;;15.77;61.25;92612.18;1772164;77;21093;-90
2021/08/26 11:53:05;;;;;;;4.55;3.83;;;;;;;15.87;59.36;92619.25;1819264;77;21060;-89
2021/08/26 11:55:44;;;;;;;4.58;3.62;;;;;;;15.87;58.50;92612.41;1820430;77;21405;-92